sensor_id;sensor_type;location;lat;lon;timestamp;pressure;altitude;pressure_sealevel;temperature;humidity
74893;BME280;63446;56.272;43.922;2023-02-05T00:01:18;101546.38;;;-1.54;68.89
74893;BME280;63446;56.272;43.922;2023-02-05T00:03:43;101556.38;;;-1.59;68.90
74893;BME280;63446;56.272;43.922;2023-02-05T00:06:09;101557.38;;;-1.60;69.08
74893;BME280;63446;56.272;43.922;2023-02-05T00:08:35;101546.31;;;-1.70;69.08
74893;BME280;63446;56.272;43.922;2023-02-05T00:11:02;101566.44;;;-1.64;68.92
74893;BME280;63446;56.272;43.922;2023-02-05T00:13:40;101555.91;;;-1.62;69.11
74893;BME280;63446;56.272;43.922;2023-02-05T00:16:12;101563.84;;;-1.64;69.17
74893;BME280;63446;56.272;43.922;2023-02-05T00:18:38;101570.81;;;-1.64;69.06
74893;BME280;63446;56.272;43.922;2023-02-05T00:21:05;101562.53;;;-1.68;69.01
74893;BME280;63446;56.272;43.922;2023-02-05T00:23:32;101573.22;;;-1.71;69.21
74893;BME280;63446;56.272;43.922;2023-02-05T00:25:58;101574.34;;;-1.74;69.11
74893;BME280;63446;56.272;43.922;2023-02-05T00:28:24;101565.25;;;-1.78;69.22
74893;BME280;63446;56.272;43.922;2023-02-05T00:30:51;101568.00;;;-1.79;69.32
74893;BME280;63446;56.272;43.922;2023-02-05T00:33:17;101556.66;;;-1.86;69.26
74893;BME280;63446;56.272;43.922;2023-02-05T00:35:42;101566.06;;;-1.77;69.44
74893;BME280;63446;56.272;43.922;2023-02-05T00:38:10;101570.94;;;-1.74;69.39
74893;BME280;63446;56.272;43.922;2023-02-05T00:40:36;101562.53;;;-1.76;69.38
74893;BME280;63446;56.272;43.922;2023-02-05T00:43:02;101557.97;;;-1.82;69.10
74893;BME280;63446;56.272;43.922;2023-02-05T00:45:28;101566.56;;;-1.74;69.28
74893;BME280;63446;56.272;43.922;2023-02-05T00:48:01;101551.47;;;-1.86;69.24
74893;BME280;63446;56.272;43.922;2023-02-05T00:50:27;101569.81;;;-1.72;69.38
74893;BME280;63446;56.272;43.922;2023-02-05T00:52:53;101564.97;;;-1.66;69.47
74893;BME280;63446;56.272;43.922;2023-02-05T00:55:19;101567.25;;;-1.63;69.20
74893;BME280;63446;56.272;43.922;2023-02-05T00:57:46;101561.06;;;-1.70;69.33
74893;BME280;63446;56.272;43.922;2023-02-05T01:00:12;101566.41;;;-1.72;69.30
74893;BME280;63446;56.272;43.922;2023-02-05T01:02:38;101560.25;;;-1.71;69.28
74893;BME280;63446;56.272;43.922;2023-02-05T01:05:04;101580.00;;;-1.70;69.31
74893;BME280;63446;56.272;43.922;2023-02-05T01:07:30;101566.41;;;-1.72;69.22
74893;BME280;63446;56.272;43.922;2023-02-05T01:09:56;101558.75;;;-1.82;69.28
74893;BME280;63446;56.272;43.922;2023-02-05T01:12:22;101566.06;;;-1.77;69.46
74893;BME280;63446;56.272;43.922;2023-02-05T01:14:49;101557.47;;;-1.78;69.42
74893;BME280;63446;56.272;43.922;2023-02-05T01:17:15;101566.22;;;-1.79;69.47
74893;BME280;63446;56.272;43.922;2023-02-05T01:19:41;101552.44;;;-1.87;69.49
74893;BME280;63446;56.272;43.922;2023-02-05T01:22:07;101555.97;;;-1.88;69.53
74893;BME280;63446;56.272;43.922;2023-02-05T01:24:34;101571.72;;;-1.82;69.64
74893;BME280;63446;56.272;43.922;2023-02-05T01:27:00;101578.69;;;-1.82;69.70
74893;BME280;63446;56.272;43.922;2023-02-05T01:29:26;101581.94;;;-1.80;69.61
74893;BME280;63446;56.272;43.922;2023-02-05T01:31:53;101555.16;;;-1.97;69.60
74893;BME280;63446;56.272;43.922;2023-02-05T01:34:18;101571.88;;;-1.83;69.67
74893;BME280;63446;56.272;43.922;2023-02-05T01:36:44;101576.25;;;-1.84;69.54
74893;BME280;63446;56.272;43.922;2023-02-05T01:39:10;101574.28;;;-1.90;69.78
74893;BME280;63446;56.272;43.922;2023-02-05T01:41:36;101567.63;;;-1.92;69.62
74893;BME280;63446;56.272;43.922;2023-02-05T01:44:14;101577.56;;;-1.88;69.78
74893;BME280;63446;56.272;43.922;2023-02-05T01:46:45;101586.09;;;-1.95;69.88
74893;BME280;63446;56.272;43.922;2023-02-05T01:51:44;101581.38;;;-2.00;69.95
74893;BME280;63446;56.272;43.922;2023-02-05T01:54:12;101578.78;;;-2.00;70.09
74893;BME280;63446;56.272;43.922;2023-02-05T01:56:41;101575.38;;;-2.01;70.08
74893;BME280;63446;56.272;43.922;2023-02-05T01:59:14;101581.22;;;-1.99;70.05
74893;BME280;63446;56.272;43.922;2023-02-05T02:01:41;101581.88;;;-1.97;70.19
74893;BME280;63446;56.272;43.922;2023-02-05T02:04:08;101592.22;;;-1.97;70.07
74893;BME280;63446;56.272;43.922;2023-02-05T02:06:36;101591.28;;;-1.95;70.05
74893;BME280;63446;56.272;43.922;2023-02-05T02:09:04;101592.09;;;-1.95;70.03
74893;BME280;63446;56.272;43.922;2023-02-05T02:11:34;101593.88;;;-1.95;70.10
74893;BME280;63446;56.272;43.922;2023-02-05T02:14:03;101579.25;;;-2.05;70.16
74893;BME280;63446;56.272;43.922;2023-02-05T02:16:33;101593.88;;;-1.95;70.17
74893;BME280;63446;56.272;43.922;2023-02-05T02:19:03;101586.75;;;-1.93;70.23
74893;BME280;63446;56.272;43.922;2023-02-05T02:21:44;101596.63;;;-1.89;70.18
74893;BME280;63446;56.272;43.922;2023-02-05T02:29:56;101595.03;;;-1.90;70.17
74893;BME280;63446;56.272;43.922;2023-02-05T02:32:39;101596.13;;;-1.92;70.13
74893;BME280;63446;56.272;43.922;2023-02-05T02:35:37;101603.91;;;-1.92;70.29
74893;BME280;63446;56.272;43.922;2023-02-05T02:38:16;101593.41;;;-1.91;70.41
74893;BME280;63446;56.272;43.922;2023-02-05T02:40:52;101601.81;;;-1.89;70.32
74893;BME280;63446;56.272;43.922;2023-02-05T02:43:21;101596.63;;;-1.89;70.22
74893;BME280;63446;56.272;43.922;2023-02-05T02:45:53;101602.78;;;-1.90;70.29
74893;BME280;63446;56.272;43.922;2023-02-05T02:48:22;101594.22;;;-1.90;70.43
74893;BME280;63446;56.272;43.922;2023-02-05T02:50:52;101601.19;;;-1.91;70.36
74893;BME280;63446;56.272;43.922;2023-02-05T02:53:23;101600.50;;;-1.93;70.42
74893;BME280;63446;56.272;43.922;2023-02-05T02:55:51;101599.38;;;-1.99;70.42
74893;BME280;63446;56.272;43.922;2023-02-05T02:58:31;101598.56;;;-1.99;70.40
74893;BME280;63446;56.272;43.922;2023-02-05T03:01:00;101598.06;;;-2.03;70.24
74893;BME280;63446;56.272;43.922;2023-02-05T03:03:31;101603.03;;;-2.09;70.45
74893;BME280;63446;56.272;43.922;2023-02-05T03:06:02;101594.41;;;-2.18;70.50
74893;BME280;63446;56.272;43.922;2023-02-05T03:08:34;101598.66;;;-2.09;70.48
74893;BME280;63446;56.272;43.922;2023-02-05T03:11:05;101592.34;;;-2.14;70.70
74893;BME280;63446;56.272;43.922;2023-02-05T03:13:35;101588.59;;;-2.12;70.54
74893;BME280;63446;56.272;43.922;2023-02-05T03:16:04;101579.38;;;-2.14;70.62
74893;BME280;63446;56.272;43.922;2023-02-05T03:18:31;101597.53;;;-2.06;70.55
74893;BME280;63446;56.272;43.922;2023-02-05T03:21:12;101597.03;;;-2.10;70.43
74893;BME280;63446;56.272;43.922;2023-02-05T03:23:41;101608.41;;;-2.03;70.58
74893;BME280;63446;56.272;43.922;2023-02-05T03:29:02;101608.03;;;-2.08;70.46
74893;BME280;63446;56.272;43.922;2023-02-05T03:39:14;101612.59;;;-2.10;70.80
74893;BME280;63446;56.272;43.922;2023-02-05T03:47:32;101603.03;;;-2.09;70.63
74893;BME280;63446;56.272;43.922;2023-02-05T03:53:11;101621.47;;;-2.12;70.76
74893;BME280;63446;56.272;43.922;2023-02-05T03:55:44;101611.28;;;-2.14;70.55
74893;BME280;63446;56.272;43.922;2023-02-05T03:58:25;101614.97;;;-2.16;70.70
74893;BME280;63446;56.272;43.922;2023-02-05T04:00:54;101615.47;;;-2.13;70.80
74893;BME280;63446;56.272;43.922;2023-02-05T04:03:20;101618.75;;;-2.11;70.84
74893;BME280;63446;56.272;43.922;2023-02-05T04:05:46;101613.41;;;-2.09;71.01
74893;BME280;63446;56.272;43.922;2023-02-05T04:08:13;101622.66;;;-2.07;70.72
74893;BME280;63446;56.272;43.922;2023-02-05T04:10:44;101619.38;;;-2.09;70.69
74893;BME280;63446;56.272;43.922;2023-02-05T04:13:09;101622.13;;;-2.10;70.72
74893;BME280;63446;56.272;43.922;2023-02-05T04:15:37;101633.59;;;-2.13;70.74
74893;BME280;63446;56.272;43.922;2023-02-05T04:18:06;101632.13;;;-2.15;70.69
74893;BME280;63446;56.272;43.922;2023-02-05T04:20:33;101640.06;;;-2.17;70.68
74893;BME280;63446;56.272;43.922;2023-02-05T04:23:00;101628.84;;;-2.26;70.80
74893;BME280;63446;56.272;43.922;2023-02-05T04:25:28;101642.00;;;-2.19;70.64
74893;BME280;63446;56.272;43.922;2023-02-05T04:27:59;101641.16;;;-2.19;70.93
74893;BME280;63446;56.272;43.922;2023-02-05T04:30:25;101634.53;;;-2.22;70.79
74893;BME280;63446;56.272;43.922;2023-02-05T04:32:50;101637.13;;;-2.22;70.70
74893;BME280;63446;56.272;43.922;2023-02-05T04:35:17;101634.69;;;-2.24;70.90
74893;BME280;63446;56.272;43.922;2023-02-05T04:37:45;101636.47;;;-2.24;70.65
74893;BME280;63446;56.272;43.922;2023-02-05T04:40:11;101630.31;;;-2.23;70.90
74893;BME280;63446;56.272;43.922;2023-02-05T04:42:38;101645.72;;;-2.22;70.83
74893;BME280;63446;56.272;43.922;2023-02-05T04:45:05;101641.34;;;-2.21;70.90
74893;BME280;63446;56.272;43.922;2023-02-05T04:47:31;101645.03;;;-2.24;70.79
74893;BME280;63446;56.272;43.922;2023-02-05T04:49:57;101634.63;;;-2.32;70.64
74893;BME280;63446;56.272;43.922;2023-02-05T04:52:24;101641.28;;;-2.29;70.63
74893;BME280;63446;56.272;43.922;2023-02-05T04:54:50;101644.47;;;-2.35;70.80
74893;BME280;63446;56.272;43.922;2023-02-05T04:57:15;101648.34;;;-2.39;70.84
74893;BME280;63446;56.272;43.922;2023-02-05T04:59:41;101640.06;;;-2.43;70.94
74893;BME280;63446;56.272;43.922;2023-02-05T05:02:07;101662.25;;;-2.40;70.97
74893;BME280;63446;56.272;43.922;2023-02-05T05:04:35;101651.91;;;-2.40;70.95
74893;BME280;63446;56.272;43.922;2023-02-05T05:07:01;101655.50;;;-2.33;71.12
74893;BME280;63446;56.272;43.922;2023-02-05T05:09:27;101653.28;;;-2.28;71.01
74893;BME280;63446;56.272;43.922;2023-02-05T05:11:53;101639.94;;;-2.41;71.02
74893;BME280;63446;56.272;43.922;2023-02-05T05:14:21;101634.75;;;-2.41;70.77
74893;BME280;63446;56.272;43.922;2023-02-05T05:16:48;101656.16;;;-2.31;70.77
74893;BME280;63446;56.272;43.922;2023-02-05T05:19:14;101655.22;;;-2.30;71.05
74893;BME280;63446;56.272;43.922;2023-02-05T05:21:41;101651.78;;;-2.31;70.88
74893;BME280;63446;56.272;43.922;2023-02-05T05:24:08;101658.44;;;-2.28;70.78
74893;BME280;63446;56.272;43.922;2023-02-05T05:26:34;101663.50;;;-2.27;70.97
74893;BME280;63446;56.272;43.922;2023-02-05T05:29:00;101667.41;;;-2.23;70.87
74893;BME280;63446;56.272;43.922;2023-02-05T05:31:26;101672.13;;;-2.18;71.10
74893;BME280;63446;56.272;43.922;2023-02-05T05:33:51;101666.63;;;-2.15;70.80
74893;BME280;63446;56.272;43.922;2023-02-05T05:36:18;101679.59;;;-2.15;70.94
74893;BME280;63446;56.272;43.922;2023-02-05T05:38:43;101670.16;;;-2.16;70.68
74893;BME280;63446;56.272;43.922;2023-02-05T05:41:21;101674.50;;;-2.25;70.50
74893;BME280;63446;56.272;43.922;2023-02-05T05:44:07;101667.56;;;-2.16;70.77
74893;BME280;63446;56.272;43.922;2023-02-05T05:46:34;101679.72;;;-2.16;70.73
74893;BME280;63446;56.272;43.922;2023-02-05T05:49:02;101669.47;;;-2.26;70.63
74893;BME280;63446;56.272;43.922;2023-02-05T05:51:29;101678.91;;;-2.17;70.58
74893;BME280;63446;56.272;43.922;2023-02-05T05:53:55;101678.91;;;-2.17;70.65
74893;BME280;63446;56.272;43.922;2023-02-05T05:56:21;101675.06;;;-2.13;70.71
74893;BME280;63446;56.272;43.922;2023-02-05T05:58:47;101677.50;;;-2.11;70.54
74893;BME280;63446;56.272;43.922;2023-02-05T06:01:17;101668.59;;;-2.09;70.49
74893;BME280;63446;56.272;43.922;2023-02-05T06:03:46;101676.88;;;-2.05;70.37
74893;BME280;63446;56.272;43.922;2023-02-05T06:06:12;101679.97;;;-2.02;70.41
74893;BME280;63446;56.272;43.922;2023-02-05T06:08:37;101690.69;;;-1.97;70.30
74893;BME280;63446;56.272;43.922;2023-02-05T06:11:03;101687.28;;;-1.97;70.28
74893;BME280;63446;56.272;43.922;2023-02-05T06:13:29;101676.41;;;-2.01;70.05
74893;BME280;63446;56.272;43.922;2023-02-05T06:15:55;101672.88;;;-2.00;70.03
74893;BME280;63446;56.272;43.922;2023-02-05T06:18:22;101698.19;;;-1.85;69.89
74893;BME280;63446;56.272;43.922;2023-02-05T06:20:47;101692.25;;;-1.78;70.01
74893;BME280;63446;56.272;43.922;2023-02-05T06:23:13;101695.84;;;-1.70;69.82
74893;BME280;63446;56.272;43.922;2023-02-05T06:25:40;101690.66;;;-1.70;69.74
74893;BME280;63446;56.272;43.922;2023-02-05T06:28:06;101703.19;;;-1.58;69.61
74893;BME280;63446;56.272;43.922;2023-02-05T06:30:32;101699.47;;;-1.55;69.62
74893;BME280;63446;56.272;43.922;2023-02-05T06:32:57;101705.19;;;-1.43;69.31
74893;BME280;63446;56.272;43.922;2023-02-05T06:35:24;101722.06;;;-1.39;69.34
74893;BME280;63446;56.272;43.922;2023-02-05T06:37:50;101716.22;;;-1.41;69.17
74893;BME280;63446;56.272;43.922;2023-02-05T06:40:16;101719.78;;;-1.42;69.22
74893;BME280;63446;56.272;43.922;2023-02-05T06:42:43;101719.94;;;-1.44;69.20
74893;BME280;63446;56.272;43.922;2023-02-05T06:45:10;101690.84;;;-1.64;69.06
74893;BME280;63446;56.272;43.922;2023-02-05T06:47:37;101721.19;;;-1.56;68.98
74893;BME280;63446;56.272;43.922;2023-02-05T06:50:04;101726.22;;;-1.55;69.10
74893;BME280;63446;56.272;43.922;2023-02-05T06:52:30;101731.69;;;-1.58;69.06
74893;BME280;63446;56.272;43.922;2023-02-05T06:54:56;101720.66;;;-1.68;69.03
74893;BME280;63446;56.272;43.922;2023-02-05T06:57:22;101740.31;;;-1.57;69.12
74893;BME280;63446;56.272;43.922;2023-02-05T06:59:48;101738.84;;;-1.60;69.00
74893;BME280;63446;56.272;43.922;2023-02-05T07:02:14;101747.59;;;-1.61;68.95
74893;BME280;63446;56.272;43.922;2023-02-05T07:04:41;101740.91;;;-1.63;68.78
74893;BME280;63446;56.272;43.922;2023-02-05T07:07:07;101748.19;;;-1.67;68.74
74893;BME280;63446;56.272;43.922;2023-02-05T07:09:34;101736.50;;;-1.71;68.69
74893;BME280;63446;56.272;43.922;2023-02-05T07:12:00;101741.00;;;-1.73;68.73
74893;BME280;63446;56.272;43.922;2023-02-05T07:14:25;101749.25;;;-1.78;68.60
74893;BME280;63446;56.272;43.922;2023-02-05T07:16:51;101738.59;;;-1.75;68.50
74893;BME280;63446;56.272;43.922;2023-02-05T07:19:17;101746.38;;;-1.75;68.60
74893;BME280;63446;56.272;43.922;2023-02-05T07:21:42;101745.75;;;-1.68;68.53
74893;BME280;63446;56.272;43.922;2023-02-05T07:24:09;101746.41;;;-1.66;68.34
74893;BME280;63446;56.272;43.922;2023-02-05T07:26:35;101750.28;;;-1.70;68.21
74893;BME280;63446;56.272;43.922;2023-02-05T07:29:01;101753.31;;;-1.75;67.95
74893;BME280;63446;56.272;43.922;2023-02-05T07:31:27;101748.44;;;-1.78;67.86
74893;BME280;63446;56.272;43.922;2023-02-05T07:33:53;101739.16;;;-1.89;67.93
74893;BME280;63446;56.272;43.922;2023-02-05T07:36:19;101759.91;;;-1.81;67.85
74893;BME280;63446;56.272;43.922;2023-02-05T07:38:46;101754.91;;;-1.82;67.94
74893;BME280;63446;56.272;43.922;2023-02-05T07:41:14;101759.78;;;-1.79;67.92
74893;BME280;63446;56.272;43.922;2023-02-05T07:43:40;101761.44;;;-1.70;67.90
74893;BME280;63446;56.272;43.922;2023-02-05T07:46:09;101750.31;;;-1.62;67.60
74893;BME280;63446;56.272;43.922;2023-02-05T07:48:36;101759.91;;;-1.55;67.33
74893;BME280;63446;56.272;43.922;2023-02-05T07:51:03;101756.53;;;-1.47;67.38
74893;BME280;63446;56.272;43.922;2023-02-05T07:53:29;101769.09;;;-1.34;67.25
74893;BME280;63446;56.272;43.922;2023-02-05T07:55:55;101766.06;;;-1.21;67.09
74893;BME280;63446;56.272;43.922;2023-02-05T07:58:21;101776.00;;;-1.09;66.76
74893;BME280;63446;56.272;43.922;2023-02-05T08:00:47;101779.91;;;-0.96;66.46
74893;BME280;63446;56.272;43.922;2023-02-05T08:03:13;101776.38;;;-0.87;66.13
74893;BME280;63446;56.272;43.922;2023-02-05T08:05:39;101769.13;;;-0.76;66.14
74893;BME280;63446;56.272;43.922;2023-02-05T08:08:06;101771.41;;;-0.64;65.78
74893;BME280;63446;56.272;43.922;2023-02-05T08:10:33;101774.16;;;-0.58;65.79
74893;BME280;63446;56.272;43.922;2023-02-05T08:12:58;101766.22;;;-0.56;65.46
74893;BME280;63446;56.272;43.922;2023-02-05T08:15:24;101773.22;;;-0.48;65.55
74893;BME280;63446;56.272;43.922;2023-02-05T08:17:51;101765.41;;;-0.48;65.40
74893;BME280;63446;56.272;43.922;2023-02-05T08:20:17;101781.00;;;-0.32;65.15
74893;BME280;63446;56.272;43.922;2023-02-05T08:22:43;101774.50;;;-0.20;64.97
74893;BME280;63446;56.272;43.922;2023-02-05T08:25:12;101778.88;;;-0.04;64.69
74893;BME280;63446;56.272;43.922;2023-02-05T08:27:40;101784.56;;;0.16;64.48
74893;BME280;63446;56.272;43.922;2023-02-05T08:30:11;101778.19;;;0.35;64.11
74893;BME280;63446;56.272;43.922;2023-02-05T08:32:38;101778.94;;;0.52;63.94
74893;BME280;63446;56.272;43.922;2023-02-05T08:35:04;101771.41;;;0.65;63.72
74893;BME280;63446;56.272;43.922;2023-02-05T08:37:31;101766.03;;;0.75;63.27
74893;BME280;63446;56.272;43.922;2023-02-05T08:39:57;101763.84;;;0.86;63.22
74893;BME280;63446;56.272;43.922;2023-02-05T08:42:23;101765.59;;;0.94;62.75
74893;BME280;63446;56.272;43.922;2023-02-05T08:44:49;101770.59;;;1.04;62.73
74893;BME280;63446;56.272;43.922;2023-02-05T08:47:20;101763.03;;;1.17;62.33
74893;BME280;63446;56.272;43.922;2023-02-05T08:49:46;101773.69;;;1.30;62.28
74893;BME280;63446;56.272;43.922;2023-02-05T08:52:13;101769.41;;;1.37;61.61
74893;BME280;63446;56.272;43.922;2023-02-05T08:54:39;101774.63;;;1.37;61.44
74893;BME280;63446;56.272;43.922;2023-02-05T08:57:06;101774.00;;;1.35;61.12
74893;BME280;63446;56.272;43.922;2023-02-05T08:59:33;101771.03;;;1.38;61.22
74893;BME280;63446;56.272;43.922;2023-02-05T09:02:00;101767.75;;;1.44;61.09
74893;BME280;63446;56.272;43.922;2023-02-05T09:04:26;101775.81;;;1.58;61.03
74893;BME280;63446;56.272;43.922;2023-02-05T09:06:52;101778.97;;;1.68;60.75
74893;BME280;63446;56.272;43.922;2023-02-05T09:09:18;101769.47;;;1.75;60.50
74893;BME280;63446;56.272;43.922;2023-02-05T09:11:46;101766.84;;;1.75;60.12
74893;BME280;63446;56.272;43.922;2023-02-05T09:14:12;101766.75;;;1.68;60.04
74893;BME280;63446;56.272;43.922;2023-02-05T09:16:38;101759.53;;;1.56;60.03
74893;BME280;63446;56.272;43.922;2023-02-05T09:19:06;101764.28;;;1.52;59.87
74893;BME280;63446;56.272;43.922;2023-02-05T09:21:32;101771.50;;;1.42;59.87
74893;BME280;63446;56.272;43.922;2023-02-05T09:23:58;101759.25;;;1.28;59.87
74893;BME280;63446;56.272;43.922;2023-02-05T09:26:25;101776.16;;;1.32;59.98
74893;BME280;63446;56.272;43.922;2023-02-05T09:28:51;101765.38;;;1.35;59.84
74893;BME280;63446;56.272;43.922;2023-02-05T09:31:19;101771.41;;;1.35;59.61
74893;BME280;63446;56.272;43.922;2023-02-05T09:33:45;101766.47;;;1.40;59.53
74893;BME280;63446;56.272;43.922;2023-02-05T09:36:17;101774.75;;;1.44;59.69
74893;BME280;63446;56.272;43.922;2023-02-05T09:38:44;101769.19;;;1.47;59.30
74893;BME280;63446;56.272;43.922;2023-02-05T09:51:03;101763.88;;;1.40;58.91
74893;BME280;63446;56.272;43.922;2023-02-05T09:53:33;101773.59;;;1.46;58.58
74893;BME280;63446;56.272;43.922;2023-02-05T09:56:02;101763.06;;;1.40;58.67
74893;BME280;63446;56.272;43.922;2023-02-05T09:58:30;101748.00;;;1.27;58.60
74893;BME280;63446;56.272;43.922;2023-02-05T10:01:06;101771.34;;;1.43;58.45
74893;BME280;63446;56.272;43.922;2023-02-05T10:03:53;101776.84;;;1.49;58.54
74893;BME280;63446;56.272;43.922;2023-02-05T10:06:45;101787.25;;;1.49;58.31
74893;BME280;63446;56.272;43.922;2023-02-05T10:15:26;101781.78;;;1.12;58.31
74893;BME280;63446;56.272;43.922;2023-02-05T10:26:14;101781.31;;;1.09;58.13
74893;BME280;63446;56.272;43.922;2023-02-05T10:29:07;101780.75;;;0.90;58.10
74893;BME280;63446;56.272;43.922;2023-02-05T10:32:00;101781.78;;;0.73;58.37
74893;BME280;63446;56.272;43.922;2023-02-05T10:40:16;101776.59;;;0.73;58.71
74893;BME280;63446;56.272;43.922;2023-02-05T10:42:53;101766.66;;;0.77;58.60
74893;BME280;63446;56.272;43.922;2023-02-05T10:45:24;101779.44;;;0.94;58.28
74893;BME280;63446;56.272;43.922;2023-02-05T10:53:08;101771.63;;;0.94;58.05
74893;BME280;63446;56.272;43.922;2023-02-05T10:55:35;101780.78;;;0.82;58.37
74893;BME280;63446;56.272;43.922;2023-02-05T10:58:20;101779.50;;;0.78;58.42
74893;BME280;63446;56.272;43.922;2023-02-05T11:00:48;101783.53;;;0.81;58.57
74893;BME280;63446;56.272;43.922;2023-02-05T11:03:16;101780.28;;;0.87;58.42
74893;BME280;63446;56.272;43.922;2023-02-05T11:05:43;101773.41;;;0.94;58.48
74893;BME280;63446;56.272;43.922;2023-02-05T11:08:47;101784.94;;;1.00;58.32
74893;BME280;63446;56.272;43.922;2023-02-05T11:11:24;101782.78;;;1.03;58.31
74893;BME280;63446;56.272;43.922;2023-02-05T11:14:04;101781.19;;;1.02;58.21
74893;BME280;63446;56.272;43.922;2023-02-05T11:16:41;101781.00;;;1.04;58.33
74893;BME280;63446;56.272;43.922;2023-02-05T11:19:22;101764.84;;;0.85;58.13
74893;BME280;63446;56.272;43.922;2023-02-05T11:22:00;101768.28;;;0.78;58.20
74893;BME280;63446;56.272;43.922;2023-02-05T11:24:36;101775.00;;;0.64;58.38
74893;BME280;63446;56.272;43.922;2023-02-05T11:29:37;101784.78;;;0.54;58.63
74893;BME280;63446;56.272;43.922;2023-02-05T11:32:02;101775.69;;;0.49;58.75
74893;BME280;63446;56.272;43.922;2023-02-05T11:34:29;101787.25;;;0.47;58.72
74893;BME280;63446;56.272;43.922;2023-02-05T11:36:56;101786.59;;;0.45;58.86
74893;BME280;63446;56.272;43.922;2023-02-05T11:41:53;101793.59;;;0.44;59.04
74893;BME280;63446;56.272;43.922;2023-02-05T11:44:29;101788.41;;;0.36;58.67
74893;BME280;63446;56.272;43.922;2023-02-05T11:47:00;101781.97;;;0.16;58.81
74893;BME280;63446;56.272;43.922;2023-02-05T11:49:32;101789.59;;;0.09;59.08
74893;BME280;63446;56.272;43.922;2023-02-05T11:51:59;101772.75;;;-0.11;59.17
74893;BME280;63446;56.272;43.922;2023-02-05T11:54:32;101795.63;;;-0.15;59.20
74893;BME280;63446;56.272;43.922;2023-02-05T11:59:32;101791.72;;;-0.35;59.69
74893;BME280;63446;56.272;43.922;2023-02-05T12:02:28;101792.53;;;-0.43;59.79
74893;BME280;63446;56.272;43.922;2023-02-05T12:07:53;101792.50;;;-0.51;59.92
74893;BME280;63446;56.272;43.922;2023-02-05T12:13:24;101786.16;;;-0.73;59.88
74893;BME280;63446;56.272;43.922;2023-02-05T12:23:50;101785.78;;;-0.94;60.66
74893;BME280;63446;56.272;43.922;2023-02-05T12:26:28;101779.97;;;-0.88;60.53
74893;BME280;63446;56.272;43.922;2023-02-05T12:37:29;101778.69;;;-0.68;60.52
74893;BME280;63446;56.272;43.922;2023-02-05T12:42:39;101785.38;;;-0.65;60.59
74893;BME280;63446;56.272;43.922;2023-02-05T12:59:13;101801.56;;;-0.71;60.84
74893;BME280;63446;56.272;43.922;2023-02-05T13:01:46;101796.38;;;-0.71;60.86
74893;BME280;63446;56.272;43.922;2023-02-05T13:07:04;101802.88;;;-0.67;60.98
74893;BME280;63446;56.272;43.922;2023-02-05T13:09:44;101790.22;;;-0.70;60.98
74893;BME280;63446;56.272;43.922;2023-02-05T13:12:16;101789.88;;;-0.76;61.00
74893;BME280;63446;56.272;43.922;2023-02-05T13:15:06;101791.47;;;-0.83;61.03
74893;BME280;63446;56.272;43.922;2023-02-05T13:17:42;101793.09;;;-0.90;61.05
74893;BME280;63446;56.272;43.922;2023-02-05T13:20:19;101792.88;;;-0.96;61.19
74893;BME280;63446;56.272;43.922;2023-02-05T13:22:54;101796.78;;;-1.01;61.24
74893;BME280;63446;56.272;43.922;2023-02-05T13:25:43;101792.22;;;-1.07;61.34
74893;BME280;63446;56.272;43.922;2023-02-05T13:28:41;101790.56;;;-1.16;61.31
74893;BME280;63446;56.272;43.922;2023-02-05T13:31:24;101790.38;;;-1.23;61.41
74893;BME280;63446;56.272;43.922;2023-02-05T13:33:54;101788.56;;;-1.30;61.54
74893;BME280;63446;56.272;43.922;2023-02-05T13:36:29;101796.31;;;-1.38;61.74
74893;BME280;63446;56.272;43.922;2023-02-05T13:52:36;101800.31;;;-1.44;62.06
74893;BME280;63446;56.272;43.922;2023-02-05T13:58:04;101816.69;;;-1.43;61.95
74893;BME280;63446;56.272;43.922;2023-02-05T14:00:37;101804.19;;;-1.48;61.94
74893;BME280;63446;56.272;43.922;2023-02-05T14:03:04;101806.44;;;-1.53;62.07
74893;BME280;63446;56.272;43.922;2023-02-05T14:05:40;101812.72;;;-1.56;62.27
74893;BME280;63446;56.272;43.922;2023-02-05T14:08:37;101820.34;;;-1.54;62.36
74893;BME280;63446;56.272;43.922;2023-02-05T14:11:04;101813.53;;;-1.55;62.27
74893;BME280;63446;56.272;43.922;2023-02-05T14:13:32;101816.66;;;-1.52;62.45
74893;BME280;63446;56.272;43.922;2023-02-05T14:19:04;101822.34;;;-1.48;62.26
74893;BME280;63446;56.272;43.922;2023-02-05T14:25:08;101819.94;;;-1.41;62.27
74893;BME280;63446;56.272;43.922;2023-02-05T14:29:51;101823.06;;;-1.38;62.19
74893;BME280;63446;56.272;43.922;2023-02-05T14:35:00;101816.38;;;-1.40;62.51
74893;BME280;63446;56.272;43.922;2023-02-05T14:39:56;101807.56;;;-1.56;62.43
74893;BME280;63446;56.272;43.922;2023-02-05T14:42:26;101817.63;;;-1.53;62.45
74893;BME280;63446;56.272;43.922;2023-02-05T14:44:55;101814.00;;;-1.60;62.66
74893;BME280;63446;56.272;43.922;2023-02-05T14:47:32;101817.19;;;-1.66;62.54
74893;BME280;63446;56.272;43.922;2023-02-05T14:50:29;101811.31;;;-1.76;62.52
74893;BME280;63446;56.272;43.922;2023-02-05T14:52:59;101813.69;;;-1.83;62.69
74893;BME280;63446;56.272;43.922;2023-02-05T14:55:38;101818.66;;;-1.89;62.86
74893;BME280;63446;56.272;43.922;2023-02-05T14:58:16;101827.56;;;-1.92;63.02
74893;BME280;63446;56.272;43.922;2023-02-05T15:00:46;101824.59;;;-1.97;63.07
74893;BME280;63446;56.272;43.922;2023-02-05T15:05:49;101824.41;;;-2.04;63.05
74893;BME280;63446;56.272;43.922;2023-02-05T15:10:56;101830.38;;;-2.03;63.01
74893;BME280;63446;56.272;43.922;2023-02-05T15:13:24;101831.19;;;-2.03;63.27
74893;BME280;63446;56.272;43.922;2023-02-05T15:18:47;101834.09;;;-2.06;63.25
74893;BME280;63446;56.272;43.922;2023-02-05T15:21:23;101825.78;;;-2.09;63.18
74893;BME280;63446;56.272;43.922;2023-02-05T15:23:59;101826.59;;;-2.09;63.33
74893;BME280;63446;56.272;43.922;2023-02-05T15:26:29;101825.28;;;-2.13;63.43